Time;durP1;ratioP1;P1;durP2;ratioP2;P2;SDS_P1;SDS_P2;PMS_P1;PMS_P2;Temp;Humidity;BMP_temperature;BMP_pressure;BME280_temperature;BME280_humidity;BME280_pressure;Samples;Min_cycle;Max_cycle;Signal;HPM_P1;HPM_P2
2022/04/12 00:01:47;;;;;;;14.07;11.88;;;7.70;99.90;;;;;;4954780;28;20039;-80
2022/04/12 00:04:21;;;;;;;16.33;12.25;;;7.70;99.90;;;;;;4959403;28;20176;-80
2022/04/12 00:06:50;;;;;;;18.25;14.13;;;7.60;99.90;;;;;;4960065;28;20046;-79
2022/04/12 00:09:21;;;;;;;14.75;12.80;;;7.50;99.90;;;;;;4959831;28;20144;-79
2022/04/12 00:11:53;;;;;;;18.13;13.73;;;7.50;99.90;;;;;;4961248;28;20038;-79
2022/04/12 00:14:28;;;;;;;17.40;13.10;;;7.40;99.90;;;;;;4961002;28;20050;-80
2022/04/12 00:19:48;;;;;;;16.85;13.32;;;7.40;99.90;;;;;;4957495;28;20505;-79
2022/04/12 00:22:20;;;;;;;17.20;13.70;;;7.30;99.90;;;;;;4945929;28;20042;-80
2022/04/12 00:24:55;;;;;;;15.48;11.82;;;7.30;99.90;;;;;;4959556;28;20055;-79
2022/04/12 00:27:44;;;;;;;15.43;12.65;;;7.30;99.90;;;;;;4961115;28;20081;-80
2022/04/12 00:30:21;;;;;;;18.40;13.07;;;7.20;99.90;;;;;;4942762;28;20042;-80
2022/04/12 00:32:53;;;;;;;16.90;13.73;;;7.20;99.90;;;;;;4960256;28;20046;-80
2022/04/12 00:35:24;;;;;;;15.90;12.00;;;7.10;99.90;;;;;;4961301;28;20038;-80
2022/04/12 00:38:01;;;;;;;16.63;12.82;;;7.10;99.90;;;;;;4961951;28;20554;-80
2022/04/12 00:40:39;;;;;;;17.55;13.77;;;7.10;99.90;;;;;;4978562;28;20038;-79
2022/04/12 00:43:24;;;;;;;15.82;12.10;;;7.00;99.90;;;;;;4965717;28;20030;-79
2022/04/12 00:46:00;;;;;;;15.68;12.43;;;7.00;99.90;;;;;;4965326;28;20042;-79
2022/04/12 00:48:35;;;;;;;17.70;13.23;;;7.00;99.90;;;;;;4965411;28;20042;-79
2022/04/12 00:51:29;;;;;;;18.30;13.10;;;7.00;99.90;;;;;;4962942;28;20093;-80
2022/04/12 00:54:06;;;;;;;17.20;12.85;;;6.90;99.90;;;;;;4887414;29;20051;-80
2022/04/12 00:56:54;;;;;;;17.65;13.18;;;6.90;99.90;;;;;;4989489;28;20050;-79
2022/04/12 00:59:24;;;;;;;15.00;12.85;;;6.90;99.90;;;;;;4963379;28;20043;-79
2022/04/12 01:01:50;;;;;;;15.80;11.65;;;6.80;99.90;;;;;;4965245;28;20054;-80
2022/04/12 01:04:22;;;;;;;16.63;12.90;;;6.80;99.90;;;;;;4964963;28;20412;-80
2022/04/12 01:07:02;;;;;;;17.13;12.30;;;6.80;99.90;;;;;;4964830;28;20038;-80
2022/04/12 01:09:34;;;;;;;17.88;12.65;;;6.70;99.90;;;;;;4965101;28;20042;-79
2022/04/12 01:12:13;;;;;;;15.57;13.23;;;6.70;99.90;;;;;;4965841;28;20038;-79
2022/04/12 01:14:42;;;;;;;13.88;12.30;;;6.70;99.90;;;;;;4965019;28;20039;-79
2022/04/12 01:17:16;;;;;;;15.57;12.05;;;6.70;99.90;;;;;;4964650;28;20038;-79
2022/04/12 01:20:02;;;;;;;14.60;12.70;;;6.70;99.90;;;;;;4964642;28;20042;-79
2022/04/12 01:22:37;;;;;;;15.85;12.75;;;6.60;99.90;;;;;;4964082;28;20051;-80
2022/04/12 01:25:07;;;;;;;14.18;11.45;;;6.60;99.90;;;;;;4963919;28;20046;-79
2022/04/12 01:27:43;;;;;;;16.75;13.18;;;6.60;99.90;;;;;;4963374;28;20129;-79
2022/04/12 01:30:20;;;;;;;15.32;12.15;;;6.50;99.90;;;;;;4964094;28;20547;-79
2022/04/12 01:32:53;;;;;;;14.32;11.55;;;6.50;99.90;;;;;;4964318;28;20460;-80
2022/04/12 01:35:28;;;;;;;15.35;11.45;;;6.50;99.90;;;;;;4964990;28;20471;-80
2022/04/12 01:38:03;;;;;;;14.50;11.93;;;6.50;99.90;;;;;;4969020;28;20061;-79
2022/04/12 01:40:35;;;;;;;16.58;12.55;;;6.50;99.90;;;;;;4973985;28;20034;-79
2022/04/12 01:43:11;;;;;;;17.08;13.00;;;6.40;99.90;;;;;;4972947;28;20045;-80
2022/04/12 01:45:57;;;;;;;17.67;12.15;;;6.40;99.90;;;;;;4963597;28;20121;-79
2022/04/12 01:48:29;;;;;;;15.38;11.77;;;6.40;99.90;;;;;;4962616;28;20061;-79
2022/04/12 01:51:11;;;;;;;15.32;11.10;;;6.40;99.90;;;;;;4980522;28;20117;-79
2022/04/12 01:53:45;;;;;;;14.82;11.27;;;6.40;99.90;;;;;;4962264;28;20271;-79
2022/04/12 01:56:19;;;;;;;16.27;12.43;;;6.50;99.90;;;;;;4962529;28;20026;-79
2022/04/12 01:58:49;;;;;;;16.95;12.57;;;6.40;99.90;;;;;;4948479;28;20063;-79
2022/04/12 02:01:23;;;;;;;14.10;11.23;;;6.40;99.90;;;;;;4959630;28;20121;-79
2022/04/12 02:04:01;;;;;;;16.40;12.00;;;6.30;99.90;;;;;;4963410;28;20057;-79
2022/04/12 02:06:35;;;;;;;17.73;12.30;;;6.30;99.90;;;;;;4962590;28;20038;-80
2022/04/12 02:09:07;;;;;;;16.20;12.43;;;6.20;99.90;;;;;;4962731;28;20373;-79
2022/04/12 02:11:36;;;;;;;15.18;11.65;;;6.30;99.90;;;;;;4958198;28;20047;-79
2022/04/12 02:14:07;;;;;;;15.35;11.85;;;6.20;99.90;;;;;;4942152;28;20086;-79
2022/04/12 02:16:35;;;;;;;15.32;12.25;;;6.20;99.90;;;;;;4952331;28;20038;-79
2022/04/12 02:19:03;;;;;;;16.90;12.00;;;6.10;99.90;;;;;;4978181;28;20078;-79
2022/04/12 02:21:30;;;;;;;15.15;12.88;;;6.00;99.90;;;;;;4961911;28;20053;-79
2022/04/12 02:24:01;;;;;;;15.95;12.07;;;6.00;99.90;;;;;;4976855;28;20042;-79
2022/04/12 02:26:30;;;;;;;14.57;12.32;;;5.90;99.90;;;;;;4977473;28;20038;-79
2022/04/12 02:29:01;;;;;;;14.13;12.05;;;5.90;99.90;;;;;;4961669;28;20121;-79
2022/04/12 02:31:31;;;;;;;15.95;12.63;;;5.70;99.90;;;;;;4961371;28;20125;-79
2022/04/12 02:34:00;;;;;;;14.88;12.38;;;5.60;99.90;;;;;;4961750;28;20046;-79
2022/04/12 02:36:29;;;;;;;15.20;12.23;;;5.60;99.90;;;;;;4961993;28;20046;-79
2022/04/12 02:39:03;;;;;;;17.45;13.05;;;5.40;99.90;;;;;;4961781;28;20038;-79
2022/04/12 02:41:36;;;;;;;15.32;12.20;;;5.40;99.90;;;;;;4964965;28;20062;-79
2022/04/12 02:44:10;;;;;;;15.98;12.52;;;5.20;99.90;;;;;;4966024;28;20043;-79
2022/04/12 02:46:41;;;;;;;15.98;11.82;;;5.20;99.90;;;;;;4966635;28;20405;-79
2022/04/12 02:49:15;;;;;;;16.85;12.43;;;5.20;99.90;;;;;;4968149;28;20131;-79
2022/04/12 02:51:47;;;;;;;13.80;11.27;;;5.30;99.90;;;;;;4962839;28;20046;-76
2022/04/12 02:54:16;;;;;;;16.52;11.52;;;5.40;99.90;;;;;;4960326;28;20042;-77
2022/04/12 02:56:45;;;;;;;16.40;11.85;;;5.50;99.90;;;;;;4976961;28;20090;-77
2022/04/12 02:59:19;;;;;;;14.77;12.07;;;5.50;99.90;;;;;;4959134;28;20121;-77
2022/04/12 03:01:45;;;;;;;16.00;11.63;;;5.60;99.90;;;;;;4960057;28;20038;-77
2022/04/12 03:04:16;;;;;;;15.35;12.10;;;5.70;99.90;;;;;;4959227;28;20057;-77
2022/04/12 03:06:51;;;;;;;16.17;12.95;;;5.70;99.90;;;;;;4960165;28;20042;-77
2022/04/12 03:09:23;;;;;;;14.30;12.10;;;5.60;99.90;;;;;;4960867;28;20034;-77
2022/04/12 03:11:58;;;;;;;14.07;12.38;;;5.70;99.90;;;;;;4958931;28;20073;-77
2022/04/12 03:14:31;;;;;;;14.88;11.63;;;5.70;99.90;;;;;;4945167;28;20045;-77
2022/04/12 03:17:04;;;;;;;13.63;11.25;;;5.70;99.90;;;;;;4939914;28;20047;-77
2022/04/12 03:19:40;;;;;;;17.80;12.52;;;5.80;99.90;;;;;;4940425;28;20042;-77
2022/04/12 03:22:09;;;;;;;15.30;10.98;;;5.80;99.90;;;;;;4940399;28;20440;-77
2022/04/12 03:24:38;;;;;;;14.00;11.70;;;5.80;99.90;;;;;;4959746;28;20140;-77
2022/04/12 03:27:08;;;;;;;15.88;11.63;;;5.90;99.90;;;;;;4975575;28;20046;-77
2022/04/12 03:29:42;;;;;;;14.65;11.13;;;5.80;99.90;;;;;;4959227;28;20038;-77
2022/04/12 03:32:14;;;;;;;15.07;11.93;;;5.80;99.90;;;;;;4940401;28;20039;-77
2022/04/12 03:34:45;;;;;;;13.57;11.50;;;5.90;99.90;;;;;;4940762;28;20039;-77
2022/04/12 03:37:13;;;;;;;14.02;11.48;;;5.90;99.90;;;;;;4940465;28;20062;-77
2022/04/12 03:39:38;;;;;;;15.90;11.73;;;5.90;99.90;;;;;;4964190;23;20077;-74
2022/04/12 03:42:04;;;;;;;14.23;12.68;;;5.80;99.90;;;;;;4987005;28;20042;-74
2022/04/12 03:44:30;;;;;;;14.35;10.93;;;5.90;99.90;;;;;;4975227;28;20528;-74
2022/04/12 03:46:56;;;;;;;15.27;11.52;;;5.90;99.90;;;;;;4959424;28;20050;-74
2022/04/12 03:49:22;;;;;;;12.70;10.43;;;5.90;99.90;;;;;;4974464;28;20577;-74
2022/04/12 03:51:47;;;;;;;17.05;11.60;;;5.90;99.90;;;;;;4953720;28;20378;-74
2022/04/12 03:54:13;;;;;;;16.58;11.38;;;5.90;99.90;;;;;;4955858;28;20461;-74
2022/04/12 03:56:38;;;;;;;14.90;11.02;;;5.90;99.90;;;;;;4956209;28;20038;-74
2022/04/12 03:59:04;;;;;;;14.10;11.13;;;5.90;99.90;;;;;;4955473;28;20049;-74
2022/04/12 04:01:29;;;;;;;13.38;11.00;;;5.90;99.90;;;;;;4958259;28;20066;-74
2022/04/12 04:04:01;;;;;;;12.70;10.40;;;5.90;99.90;;;;;;4974397;28;20043;-74
2022/04/12 04:06:26;;;;;;;14.80;11.05;;;5.90;99.90;;;;;;4974847;28;20045;-74
2022/04/12 04:08:52;;;;;;;12.52;10.27;;;5.90;99.90;;;;;;4974620;28;20046;-74
2022/04/12 04:11:17;;;;;;;12.57;10.00;;;5.90;99.90;;;;;;4973911;28;20128;-74
2022/04/12 04:13:43;;;;;;;12.23;9.95;;;5.90;99.90;;;;;;4974759;28;20069;-74
2022/04/12 04:16:09;;;;;;;12.88;10.02;;;5.90;99.90;;;;;;4973917;28;20042;-74
2022/04/12 04:18:35;;;;;;;15.88;11.05;;;6.00;99.90;;;;;;4974247;28;20519;-74
2022/04/12 04:21:01;;;;;;;12.73;9.93;;;6.00;99.90;;;;;;4974541;28;20042;-74
2022/04/12 04:23:27;;;;;;;14.15;10.68;;;6.00;99.90;;;;;;4974232;28;20046;-74
2022/04/12 04:25:52;;;;;;;12.23;9.98;;;6.00;99.90;;;;;;4974430;28;20536;-74
2022/04/12 04:28:21;;;;;;;15.27;9.77;;;6.00;99.90;;;;;;4974181;28;20042;-74
2022/04/12 04:30:49;;;;;;;13.27;10.07;;;6.00;99.90;;;;;;4974426;28;20046;-74
2022/04/12 04:33:15;;;;;;;15.05;9.93;;;6.00;99.90;;;;;;4974328;28;20046;-74
2022/04/12 04:35:41;;;;;;;12.23;9.35;;;5.90;99.90;;;;;;4974767;28;20096;-74
2022/04/12 04:38:06;;;;;;;13.35;10.80;;;5.90;99.90;;;;;;4974257;28;20500;-74
2022/04/12 04:40:32;;;;;;;14.45;10.63;;;5.90;99.90;;;;;;4973376;28;20092;-74
2022/04/12 04:42:58;;;;;;;13.95;11.13;;;5.90;99.90;;;;;;4974503;28;20114;-74
2022/04/12 04:45:24;;;;;;;14.35;10.38;;;5.90;99.90;;;;;;4974285;28;20057;-74
2022/04/12 04:47:56;;;;;;;14.48;10.45;;;5.90;99.90;;;;;;4974643;28;20046;-74
2022/04/12 04:50:23;;;;;;;12.13;10.68;;;5.90;99.90;;;;;;4974348;28;20137;-74
2022/04/12 04:52:49;;;;;;;13.00;10.50;;;5.90;99.90;;;;;;4974230;28;20046;-74
2022/04/12 04:55:16;;;;;;;14.15;10.55;;;5.90;99.90;;;;;;4974050;28;20053;-74
2022/04/12 04:57:43;;;;;;;12.73;9.68;;;5.90;99.90;;;;;;4974035;28;20049;-74
2022/04/12 05:00:15;;;;;;;13.82;10.70;;;5.90;99.90;;;;;;4973778;28;20105;-74
2022/04/12 05:02:51;;;;;;;13.63;10.35;;;5.90;99.90;;;;;;4974344;28;20385;-74
2022/04/12 05:05:18;;;;;;;15.60;11.48;;;5.90;99.90;;;;;;4974204;28;20493;-74
2022/04/12 05:07:46;;;;;;;12.77;10.43;;;5.90;99.90;;;;;;4974108;28;20076;-74
2022/04/12 05:10:20;;;;;;;13.27;9.98;;;5.90;99.90;;;;;;4973531;28;20126;-74
2022/04/12 05:12:46;;;;;;;11.75;9.93;;;5.90;99.90;;;;;;4974399;28;20070;-74
2022/04/12 05:15:12;;;;;;;13.68;11.18;;;6.00;99.90;;;;;;4973853;28;20045;-74
2022/04/12 05:17:38;;;;;;;13.18;10.15;;;6.00;99.90;;;;;;4974084;28;20038;-74
2022/04/12 05:20:09;;;;;;;11.63;9.45;;;6.10;99.90;;;;;;4957428;28;20034;-74
2022/04/12 05:22:34;;;;;;;11.48;9.38;;;6.10;99.90;;;;;;4974156;28;20088;-74
2022/04/12 05:25:00;;;;;;;14.00;10.00;;;6.20;99.90;;;;;;4973793;28;20078;-74
2022/04/12 05:27:33;;;;;;;14.80;10.93;;;6.20;99.90;;;;;;4976776;28;20128;-74
2022/04/12 05:30:07;;;;;;;13.38;10.15;;;6.30;99.90;;;;;;4977413;28;20046;-74
2022/04/12 05:32:33;;;;;;;12.77;10.45;;;6.30;99.90;;;;;;4961665;28;20415;-74
2022/04/12 05:34:59;;;;;;;13.95;10.35;;;6.40;99.90;;;;;;4957814;28;20559;-74
2022/04/12 05:37:24;;;;;;;11.65;9.70;;;6.50;99.90;;;;;;4977854;28;20126;-74
2022/04/12 05:39:50;;;;;;;12.55;9.40;;;6.60;99.90;;;;;;4976891;28;20046;-74
2022/04/12 05:42:15;;;;;;;14.98;10.30;;;6.60;99.90;;;;;;4977831;28;20053;-74
2022/04/12 05:44:41;;;;;;;12.23;9.98;;;6.70;99.90;;;;;;4977598;28;20077;-74
2022/04/12 05:47:10;;;;;;;13.35;9.77;;;6.70;99.90;;;;;;4977679;28;20500;-74
2022/04/12 05:49:35;;;;;;;12.40;10.23;;;6.80;99.90;;;;;;4976493;28;20038;-74
2022/04/12 05:52:01;;;;;;;12.82;9.18;;;6.90;99.90;;;;;;4977239;28;20104;-74
2022/04/12 05:54:26;;;;;;;12.05;9.70;;;7.00;99.90;;;;;;4977330;28;20050;-74
2022/04/12 05:56:52;;;;;;;13.23;10.02;;;7.00;99.90;;;;;;4977054;28;20484;-74
2022/04/12 05:59:17;;;;;;;12.88;9.77;;;7.10;99.90;;;;;;4976958;28;20504;-74
2022/04/12 06:01:43;;;;;;;11.90;9.82;;;7.10;99.90;;;;;;4976203;28;20034;-75
2022/04/12 06:04:09;;;;;;;11.30;9.20;;;7.20;99.90;;;;;;4976754;28;20042;-76
2022/04/12 06:06:35;;;;;;;12.13;9.55;;;7.20;99.90;;;;;;4977111;28;20523;-75
2022/04/12 06:09:02;;;;;;;11.85;9.15;;;7.20;99.90;;;;;;4977148;28;20042;-75
2022/04/12 06:11:28;;;;;;;12.45;9.30;;;7.30;99.90;;;;;;4976585;28;20272;-75
2022/04/12 06:13:54;;;;;;;11.15;9.20;;;7.30;99.90;;;;;;4976463;28;20045;-75
2022/04/12 06:16:20;;;;;;;14.50;9.05;;;7.40;99.90;;;;;;4976463;28;20042;-76
2022/04/12 06:18:45;;;;;;;12.77;9.15;;;7.50;99.90;;;;;;4976323;28;20093;-77
2022/04/12 06:21:11;;;;;;;12.38;9.50;;;7.60;99.90;;;;;;4976713;28;20038;-75
2022/04/12 06:23:37;;;;;;;13.38;9.40;;;7.60;99.90;;;;;;4976640;28;20408;-73
2022/04/12 06:26:03;;;;;;;11.93;9.43;;;7.70;99.90;;;;;;4976475;28;20089;-73
2022/04/12 06:28:30;;;;;;;12.20;9.25;;;7.70;99.90;;;;;;4960393;28;20097;-74
2022/04/12 06:30:58;;;;;;;11.75;9.73;;;7.80;99.90;;;;;;4976651;28;20038;-74
2022/04/12 06:33:24;;;;;;;11.57;9.05;;;7.90;99.90;;;;;;4976382;28;20042;-74
2022/04/12 06:35:49;;;;;;;12.70;9.52;;;7.90;99.90;;;;;;4960270;28;20030;-75
2022/04/12 06:38:15;;;;;;;11.52;8.93;;;7.90;99.90;;;;;;4959012;28;20053;-75
2022/04/12 06:40:43;;;;;;;10.38;9.20;;;8.00;99.90;;;;;;4976599;28;20400;-75
2022/04/12 06:43:09;;;;;;;11.35;8.90;;;7.90;99.90;;;;;;4976898;28;20092;-76
2022/04/12 06:45:34;;;;;;;12.73;8.90;;;7.90;99.90;;;;;;4976906;28;20035;-75
2022/04/12 06:48:00;;;;;;;13.73;10.05;;;7.90;99.90;;;;;;4976155;28;20129;-75
2022/04/12 06:50:27;;;;;;;12.70;9.98;;;7.90;99.90;;;;;;4959187;28;20030;-75
2022/04/12 06:52:55;;;;;;;12.15;10.23;;;8.00;99.90;;;;;;4960294;28;20046;-75
2022/04/12 06:55:21;;;;;;;11.32;9.45;;;8.00;99.90;;;;;;4960343;28;20038;-75
2022/04/12 06:57:46;;;;;;;12.07;9.30;;;8.10;99.90;;;;;;4976300;28;20038;-75
2022/04/12 07:00:13;;;;;;;11.63;9.40;;;8.30;99.90;;;;;;4959563;28;20040;-75
2022/04/12 07:02:38;;;;;;;11.57;9.55;;;8.30;99.90;;;;;;4976258;28;20042;-75
2022/04/12 07:05:05;;;;;;;10.55;9.07;;;8.40;99.90;;;;;;4975240;28;20053;-75
2022/04/12 07:07:31;;;;;;;16.17;10.60;;;8.40;99.90;;;;;;4976058;28;20046;-75
2022/04/12 07:09:57;;;;;;;12.75;10.32;;;8.40;99.90;;;;;;4975019;28;20077;-75
2022/04/12 07:12:24;;;;;;;12.10;8.75;;;8.40;99.90;;;;;;4975155;28;20485;-74
2022/04/12 07:14:50;;;;;;;12.07;9.55;;;8.50;99.90;;;;;;4975851;28;20038;-75
2022/04/12 07:17:16;;;;;;;12.40;9.38;;;8.50;99.90;;;;;;4975186;28;20053;-75
2022/04/12 07:19:41;;;;;;;12.98;9.50;;;8.50;99.90;;;;;;4975030;28;20038;-75
2022/04/12 07:22:09;;;;;;;11.95;9.82;;;8.60;99.90;;;;;;4975494;28;20046;-75
2022/04/12 07:24:34;;;;;;;14.30;8.93;;;8.70;99.90;;;;;;4959670;28;20076;-75
2022/04/12 07:27:00;;;;;;;12.75;10.00;;;8.80;99.90;;;;;;4974874;28;20472;-74
2022/04/12 07:29:25;;;;;;;10.48;8.90;;;8.80;99.90;;;;;;4956069;28;20043;-74
2022/04/12 07:31:51;;;;;;;12.43;9.52;;;9.00;99.90;;;;;;4975062;28;20413;-75
2022/04/12 07:34:16;;;;;;;13.32;9.57;;;9.10;99.90;;;;;;4975113;28;20519;-75
2022/04/12 07:36:47;;;;;;;11.73;8.75;;;9.20;99.90;;;;;;4975454;28;20042;-75
2022/04/12 07:39:14;;;;;;;11.70;8.02;;;9.30;99.90;;;;;;4974685;28;20046;-74
2022/04/12 07:41:39;;;;;;;11.82;8.63;;;9.50;99.90;;;;;;4979338;28;20044;-74
2022/04/12 07:44:05;;;;;;;11.48;8.85;;;9.70;99.40;;;;;;4963194;28;20046;-74
2022/04/12 07:46:31;;;;;;;12.05;8.90;;;9.80;99.20;;;;;;4975586;28;20038;-74
2022/04/12 07:48:56;;;;;;;11.98;8.60;;;9.90;99.90;;;;;;4974869;28;20500;-74
2022/04/12 07:51:22;;;;;;;13.30;8.90;;;10.00;99.90;;;;;;4974478;28;20042;-74
2022/04/12 07:53:47;;;;;;;10.88;7.85;;;10.10;99.90;;;;;;4974956;28;20408;-74
2022/04/12 07:56:13;;;;;;;11.75;8.40;;;10.30;98.30;;;;;;4973907;28;20441;-74
2022/04/12 07:58:38;;;;;;;10.70;8.18;;;10.50;98.00;;;;;;4974902;28;20038;-73
2022/04/12 08:01:04;;;;;;;12.27;8.00;;;10.60;98.00;;;;;;4973382;28;20069;-73
2022/04/12 08:03:29;;;;;;;11.30;8.43;;;10.80;97.70;;;;;;4972204;28;20529;-73
2022/04/12 08:05:55;;;;;;;10.23;8.18;;;11.00;98.80;;;;;;4974893;28;20559;-73
2022/04/12 08:08:20;;;;;;;9.40;8.07;;;11.10;98.60;;;;;;4969716;28;20045;-74
2022/04/12 08:10:46;;;;;;;10.07;8.10;;;11.30;96.80;;;;;;4958896;28;20038;-74
2022/04/12 08:13:11;;;;;;;11.40;7.95;;;11.40;95.50;;;;;;4975216;28;20043;-74
2022/04/12 08:15:37;;;;;;;11.43;8.00;;;11.50;94.50;;;;;;4974614;28;20042;-74
2022/04/12 08:18:06;;;;;;;11.85;8.35;;;11.70;92.20;;;;;;4958469;28;20045;-74
2022/04/12 08:20:32;;;;;;;10.75;7.95;;;11.70;90.90;;;;;;4962408;28;20078;-74
2022/04/12 08:22:57;;;;;;;12.50;8.75;;;11.80;92.00;;;;;;4955489;28;20120;-73
2022/04/12 08:25:23;;;;;;;9.88;8.57;;;11.80;93.70;;;;;;4964572;28;20520;-74
2022/04/12 08:27:48;;;;;;;10.75;8.45;;;11.90;92.40;;;;;;4971483;28;20587;-74
2022/04/12 08:30:14;;;;;;;11.25;8.00;;;12.00;93.90;;;;;;4974341;28;20484;-73
2022/04/12 08:32:40;;;;;;;10.18;8.57;;;12.10;92.60;;;;;;4958121;28;20117;-73
2022/04/12 08:35:06;;;;;;;11.77;7.90;;;12.40;97.30;;;;;;4974474;28;20126;-73
2022/04/12 08:37:32;;;;;;;9.63;7.22;;;13.10;94.00;;;;;;4958853;28;20046;-73
2022/04/12 08:39:58;;;;;;;10.18;8.13;;;13.90;79.80;;;;;;4974278;28;20049;-73
2022/04/12 08:42:23;;;;;;;9.88;8.20;;;14.50;90.00;;;;;;4974692;28;20048;-75
2022/04/12 08:44:50;;;;;;;10.07;8.05;;;15.10;85.90;;;;;;4956161;28;20046;-74
2022/04/12 08:47:17;;;;;;;10.15;7.72;;;15.70;89.60;;;;;;4974710;28;20521;-74
2022/04/12 08:49:43;;;;;;;10.63;8.20;;;16.30;88.30;;;;;;4974222;28;20042;-74
2022/04/12 08:52:11;;;;;;;9.27;7.80;;;16.80;91.20;;;;;;4974385;28;20084;-74
2022/04/12 08:54:41;;;;;;;10.70;7.80;;;17.20;76.60;;;;;;4974472;28;20444;-74
2022/04/12 08:57:08;;;;;;;8.93;7.72;;;17.50;72.80;;;;;;4974766;28;20069;-74
2022/04/12 08:59:33;;;;;;;10.18;7.63;;;17.80;75.00;;;;;;4974168;28;20038;-74
2022/04/12 09:01:59;;;;;;;11.27;8.15;;;18.00;61.90;;;;;;4976348;28;20115;-74
2022/04/12 09:04:28;;;;;;;9.30;8.10;;;18.10;70.30;;;;;;4978611;28;20034;-74
2022/04/12 09:06:59;;;;;;;10.32;8.40;;;18.10;72.80;;;;;;4978279;28;20053;-74
2022/04/12 09:09:29;;;;;;;9.45;8.45;;;18.30;72.30;;;;;;4961545;28;20035;-74
2022/04/12 09:11:57;;;;;;;9.40;7.55;;;18.30;70.40;;;;;;4977815;28;20060;-74
2022/04/12 09:14:23;;;;;;;10.00;7.72;;;18.20;67.10;;;;;;4961968;28;20058;-74
2022/04/12 09:16:51;;;;;;;9.18;7.63;;;18.20;68.40;;;;;;4978160;28;20042;-74
2022/04/12 09:19:38;;;;;;;11.32;8.30;;;18.40;70.80;;;;;;4977778;28;20149;-74
2022/04/12 09:22:10;;;;;;;9.35;8.02;;;18.50;65.50;;;;;;4978014;28;20128;-74
2022/04/12 09:24:37;;;;;;;8.27;7.30;;;19.00;76.50;;;;;;4977997;28;20057;-74
2022/04/12 09:27:03;;;;;;;11.27;7.35;;;19.40;66.20;;;;;;4977698;28;20051;-74
2022/04/12 09:29:30;;;;;;;10.55;7.82;;;19.30;59.60;;;;;;4977665;28;20097;-74
2022/04/12 09:31:57;;;;;;;9.15;8.13;;;19.20;59.30;;;;;;4977841;28;20069;-74
2022/04/12 09:34:23;;;;;;;9.82;8.05;;;19.10;62.90;;;;;;4978084;28;20050;-74
2022/04/12 09:36:49;;;;;;;10.05;7.78;;;19.40;61.00;;;;;;4977835;28;20045;-74
2022/04/12 09:39:18;;;;;;;9.50;7.88;;;19.50;63.50;;;;;;4977606;28;20034;-74
2022/04/12 09:41:48;;;;;;;9.13;7.65;;;19.60;61.80;;;;;;4961782;28;20045;-75
2022/04/12 09:44:17;;;;;;;9.15;7.90;;;19.80;58.60;;;;;;4977628;28;20155;-75
2022/04/12 09:46:43;;;;;;;8.35;7.43;;;19.90;61.30;;;;;;4961612;28;20555;-75
2022/04/12 09:49:09;;;;;;;9.13;7.68;;;20.00;62.10;;;;;;4977345;28;20034;-75
2022/04/12 09:51:38;;;;;;;9.32;6.75;;;20.10;60.20;;;;;;4977539;28;20052;-75
2022/04/12 09:54:08;;;;;;;8.80;7.90;;;20.10;55.10;;;;;;4977443;28;20092;-75
2022/04/12 09:56:36;;;;;;;8.70;7.70;;;19.80;58.00;;;;;;4977475;28;20459;-75
2022/04/12 09:59:07;;;;;;;8.85;7.60;;;19.90;60.40;;;;;;4977099;28;20057;-75
2022/04/12 10:01:39;;;;;;;8.55;7.30;;;20.30;55.60;;;;;;4977025;28;20042;-74
2022/04/12 10:04:08;;;;;;;7.70;6.90;;;20.30;57.70;;;;;;4977794;28;20042;-75
2022/04/12 10:06:41;;;;;;;8.68;7.50;;;20.60;53.30;;;;;;4977480;28;20030;-75
2022/04/12 10:09:10;;;;;;;9.70;7.63;;;20.30;57.30;;;;;;4977313;28;20121;-75
2022/04/12 10:11:37;;;;;;;11.57;8.35;;;20.30;54.60;;;;;;4960754;28;20053;-75
2022/04/12 10:14:02;;;;;;;7.90;6.47;;;20.10;56.20;;;;;;4975599;28;20061;-75
2022/04/12 10:16:28;;;;;;;8.32;6.50;;;20.10;59.40;;;;;;4977144;28;20030;-75
2022/04/12 10:18:54;;;;;;;7.85;5.80;;;20.40;58.50;;;;;;4976509;28;20039;-75
2022/04/12 10:21:22;;;;;;;7.50;5.93;;;20.70;58.70;;;;;;4976607;28;20507;-75
2022/04/12 10:23:58;;;;;;;8.15;6.05;;;21.10;58.20;;;;;;4976931;28;20048;-75
2022/04/12 10:26:26;;;;;;;7.32;5.60;;;21.50;58.80;;;;;;4977031;28;20053;-75
2022/04/12 10:28:54;;;;;;;7.78;6.40;;;21.60;54.90;;;;;;4976427;28;20047;-75
2022/04/12 10:31:22;;;;;;;6.72;6.03;;;21.60;55.20;;;;;;4976743;28;20061;-75
2022/04/12 10:34:03;;;;;;;7.93;6.18;;;21.70;56.30;;;;;;4976211;28;20038;-74
2022/04/12 10:36:57;;;;;;;6.70;5.70;;;22.00;56.30;;;;;;4976710;28;20050;-74
2022/04/12 10:39:28;;;;;;;;;;;22.40;52.10;;;;;;4976504;28;20099;-74
2022/04/12 10:41:55;;;;;;;8.00;5.93;;;22.50;50.00;;;;;;4977510;28;19928;-76
2022/04/12 10:44:22;;;;;;;8.88;6.70;;;22.60;55.70;;;;;;4973176;28;20042;-74
2022/04/12 10:46:50;;;;;;;8.65;6.85;;;22.60;55.00;;;;;;4976668;28;20066;-74
2022/04/12 10:49:20;;;;;;;9.20;6.65;;;22.50;54.90;;;;;;4976029;28;20078;-75
2022/04/12 10:51:56;;;;;;;9.43;6.53;;;22.60;54.60;;;;;;4977001;28;20060;-75
2022/04/12 10:54:34;;;;;;;8.50;6.93;;;22.70;54.70;;;;;;4976853;28;20046;-76
2022/04/12 10:57:24;;;;;;;9.18;6.88;;;23.10;51.60;;;;;;4976116;28;20112;-75
2022/04/12 10:59:51;;;;;;;9.63;6.40;;;23.00;52.70;;;;;;4959702;28;20045;-75
2022/04/12 11:02:18;;;;;;;7.50;6.57;;;22.90;53.00;;;;;;4976292;28;20184;-75
2022/04/12 11:04:43;;;;;;;8.45;6.72;;;22.60;52.30;;;;;;4958559;28;20597;-75
2022/04/12 11:07:09;;;;;;;7.95;6.90;;;22.70;53.50;;;;;;4974166;28;20125;-75
2022/04/12 11:09:36;;;;;;;7.13;6.35;;;22.80;51.10;;;;;;4974952;28;20041;-75
2022/04/12 11:12:03;;;;;;;11.23;7.05;;;22.60;52.80;;;;;;4976054;28;20050;-72
2022/04/12 11:14:38;;;;;;;8.18;6.85;;;22.70;51.80;;;;;;4976135;28;20050;-74
2022/04/12 11:17:09;;;;;;;6.97;6.00;;;22.60;51.70;;;;;;4959865;28;20070;-74
2022/04/12 11:19:46;;;;;;;7.32;6.53;;;22.60;51.60;;;;;;4975652;28;20034;-74
2022/04/12 11:22:16;;;;;;;9.00;6.55;;;22.40;50.00;;;;;;4976011;28;20042;-74
2022/04/12 11:24:42;;;;;;;8.02;6.55;;;22.30;51.40;;;;;;4959643;28;20058;-74
2022/04/12 11:27:10;;;;;;;8.45;6.65;;;22.40;52.30;;;;;;4975903;28;20128;-74
2022/04/12 11:29:37;;;;;;;7.40;6.60;;;22.50;52.00;;;;;;4959718;28;20420;-74
2022/04/12 11:32:04;;;;;;;8.95;6.63;;;22.50;52.60;;;;;;4975938;28;20117;-74
2022/04/12 11:34:31;;;;;;;9.07;6.97;;;22.70;53.00;;;;;;4993419;28;20125;-74
2022/04/12 11:37:07;;;;;;;9.75;6.15;;;22.80;52.00;;;;;;4975489;28;20496;-74
2022/04/12 11:39:41;;;;;;;8.68;6.43;;;22.90;51.90;;;;;;4988831;28;20092;-74
2022/04/12 11:42:09;;;;;;;9.38;6.53;;;23.00;50.50;;;;;;4993127;28;20044;-74
2022/04/12 11:44:35;;;;;;;8.43;6.55;;;23.10;51.80;;;;;;4993232;28;20046;-74
2022/04/12 11:47:02;;;;;;;8.80;6.80;;;23.30;52.60;;;;;;4993173;28;20042;-74
2022/04/12 11:49:29;;;;;;;8.82;6.68;;;23.60;52.40;;;;;;4975084;28;20077;-73
2022/04/12 11:51:58;;;;;;;9.40;6.15;;;23.60;50.00;;;;;;4992679;28;20042;-74
2022/04/12 11:54:33;;;;;;;7.32;6.38;;;23.70;50.90;;;;;;4992824;28;20121;-74
2022/04/12 11:57:08;;;;;;;7.70;6.90;;;24.00;50.10;;;;;;4992848;28;20390;-73
2022/04/12 11:59:44;;;;;;;11.85;6.93;;;24.10;49.30;;;;;;4992988;28;20043;-74
2022/04/12 12:02:11;;;;;;;7.95;6.82;;;24.20;49.40;;;;;;4975222;28;20125;-74
2022/04/12 12:04:45;;;;;;;8.00;6.80;;;23.90;49.50;;;;;;4975430;28;20842;-74
2022/04/12 12:07:11;;;;;;;8.50;6.97;;;23.90;49.30;;;;;;4992351;28;20386;-74
2022/04/12 12:09:38;;;;;;;8.25;6.68;;;23.90;49.50;;;;;;4958917;28;20053;-73
2022/04/12 12:12:07;;;;;;;8.18;6.88;;;24.00;49.90;;;;;;4975164;28;20058;-74
2022/04/12 12:14:33;;;;;;;9.50;7.47;;;23.80;49.40;;;;;;4992276;28;20516;-74
2022/04/12 12:17:07;;;;;;;10.30;7.22;;;23.80;49.90;;;;;;4992459;28;20052;-74
2022/04/12 12:19:33;;;;;;;9.27;7.47;;;24.00;48.80;;;;;;4991986;28;20092;-74
2022/04/12 12:22:03;;;;;;;10.20;7.78;;;24.30;49.90;;;;;;4974965;28;20121;-74
2022/04/12 12:24:29;;;;;;;12.80;7.97;;;24.60;48.40;;;;;;4992032;28;20034;-74
2022/04/12 12:26:56;;;;;;;10.68;7.40;;;24.90;49.00;;;;;;4992609;28;20034;-74
2022/04/12 12:29:24;;;;;;;10.25;7.93;;;25.10;48.60;;;;;;4992104;28;20042;-74
2022/04/12 12:31:54;;;;;;;9.23;7.65;;;24.90;47.40;;;;;;4992039;28;20057;-74
2022/04/12 12:34:31;;;;;;;10.00;7.40;;;24.90;48.00;;;;;;4992155;28;20034;-73
2022/04/12 12:36:57;;;;;;;9.23;7.50;;;24.90;47.70;;;;;;4991680;28;20053;-73
2022/04/12 12:39:27;;;;;;;8.40;7.50;;;24.80;49.30;;;;;;4991589;28;20124;-74
2022/04/12 12:41:57;;;;;;;9.15;8.05;;;24.60;48.40;;;;;;4974681;28;20081;-74
2022/04/12 12:44:24;;;;;;;8.77;7.60;;;24.60;49.70;;;;;;4974223;28;20117;-74
2022/04/12 12:46:56;;;;;;;10.40;8.30;;;24.60;49.70;;;;;;4974567;28;20101;-74
2022/04/12 12:49:22;;;;;;;9.33;7.80;;;24.30;49.70;;;;;;4991744;28;20034;-74
2022/04/12 12:51:50;;;;;;;11.02;8.15;;;23.90;49.60;;;;;;4974512;28;20046;-73
2022/04/12 12:54:18;;;;;;;11.23;7.65;;;23.40;50.20;;;;;;4958286;28;20053;-73